createdAt,value
2023-09-22T00:00:25.460Z,24.79
2023-09-22T00:01:30.896Z,24.75
2023-09-22T00:02:36.384Z,24.78
2023-09-22T00:03:42.040Z,24.75
2023-09-22T00:04:48.398Z,24.78
2023-09-22T00:05:53.834Z,24.74
2023-09-22T00:06:59.144Z,24.78
2023-09-22T00:08:04.493Z,24.74
2023-09-22T00:09:09.865Z,24.78
2023-09-22T00:10:15.265Z,24.78
2023-09-22T00:11:20.612Z,24.77
2023-09-22T00:12:26.031Z,24.77
2023-09-22T00:13:31.437Z,24.77
2023-09-22T00:14:36.787Z,24.77
2023-09-22T00:15:42.160Z,24.73
2023-09-22T00:16:47.659Z,24.76
2023-09-22T00:17:53.177Z,24.76
2023-09-22T00:18:58.644Z,24.72
2023-09-22T00:20:03.942Z,24.76
2023-09-22T00:21:09.259Z,24.76
2023-09-22T00:22:14.607Z,24.75
2023-09-22T00:23:19.917Z,24.75
2023-09-22T00:24:25.253Z,24.72
2023-09-22T00:25:30.695Z,24.76
2023-09-22T00:26:36.008Z,24.75
2023-09-22T00:27:41.405Z,24.71
2023-09-22T00:28:46.962Z,24.75
2023-09-22T00:29:52.279Z,24.7
2023-09-22T00:30:57.641Z,24.74
2023-09-22T00:32:03.445Z,24.7
2023-09-22T00:33:09.196Z,24.74
2023-09-22T00:34:14.921Z,24.73
2023-09-22T00:35:20.432Z,24.73
2023-09-22T00:36:25.803Z,24.71
2023-09-22T00:37:31.507Z,24.74
2023-09-22T00:38:36.815Z,24.73
2023-09-22T00:39:42.242Z,24.6
2023-09-22T00:40:47.662Z,24.73
2023-09-22T00:41:53.016Z,24.69
2023-09-22T00:42:58.310Z,24.73
2023-09-22T00:44:03.620Z,24.73
2023-09-22T00:45:08.981Z,24.7
2023-09-22T00:46:14.373Z,24.72
2023-09-22T00:47:19.793Z,24.72
2023-09-22T00:48:25.083Z,24.67
2023-09-22T00:49:30.450Z,24.72
2023-09-22T00:50:35.770Z,24.67
2023-09-22T00:51:41.146Z,24.7
2023-09-22T00:52:46.638Z,24.7
2023-09-22T00:53:51.965Z,24.7
2023-09-22T00:54:57.386Z,24.66
2023-09-22T00:56:02.762Z,24.7
2023-09-22T00:57:08.117Z,24.66
2023-09-22T00:58:13.495Z,24.69
2023-09-22T00:59:18.905Z,24.69
2023-09-22T01:00:27.500Z,24.65
2023-09-22T01:01:32.998Z,24.69
2023-09-22T01:02:38.615Z,24.69
2023-09-22T01:03:44.476Z,24.56
2023-09-22T01:04:50.738Z,24.65
2023-09-22T01:05:56.169Z,24.65
2023-09-22T01:07:01.496Z,24.69
2023-09-22T01:08:06.860Z,24.64
2023-09-22T01:09:12.163Z,24.69
2023-09-22T01:10:17.494Z,24.67
2023-09-22T01:11:22.786Z,24.64
2023-09-22T01:12:28.170Z,24.68
2023-09-22T01:13:33.646Z,24.63
2023-09-22T01:14:39.004Z,24.68
2023-09-22T01:15:44.537Z,24.68
2023-09-22T01:16:50.146Z,24.63
2023-09-22T01:17:55.633Z,24.62
2023-09-22T01:19:01.082Z,24.67
2023-09-22T01:20:06.505Z,24.67
2023-09-22T01:21:11.935Z,24.67
2023-09-22T01:22:17.255Z,24.62
2023-09-22T01:23:22.545Z,24.66
2023-09-22T01:24:27.846Z,24.66
2023-09-22T01:25:33.274Z,24.67
2023-09-22T01:26:38.612Z,24.66
2023-09-22T01:27:43.977Z,24.62
2023-09-22T01:28:49.395Z,24.66
2023-09-22T01:29:54.700Z,24.66
2023-09-22T01:31:00.042Z,24.65
2023-09-22T01:32:05.483Z,24.65
2023-09-22T01:33:10.857Z,24.61
2023-09-22T01:34:16.179Z,24.65
2023-09-22T01:35:21.465Z,24.61
2023-09-22T01:36:26.827Z,24.55
2023-09-22T01:37:32.214Z,24.64
2023-09-22T01:38:37.660Z,24.64
2023-09-22T01:39:43.193Z,24.64
2023-09-22T01:40:48.621Z,24.64
2023-09-22T01:41:53.939Z,24.63
2023-09-22T01:42:59.263Z,24.59
2023-09-22T01:44:04.701Z,24.59
2023-09-22T01:45:10.002Z,24.63
2023-09-22T01:46:15.468Z,24.63
2023-09-22T01:47:21.045Z,24.63
2023-09-22T01:48:26.466Z,24.63
2023-09-22T01:49:31.891Z,24.61
2023-09-22T01:50:37.196Z,24.57
2023-09-22T01:51:42.992Z,24.62
2023-09-22T01:52:48.592Z,24.61
2023-09-22T01:53:53.890Z,24.57
2023-09-22T01:54:59.340Z,24.57
2023-09-22T01:56:04.816Z,24.62
2023-09-22T01:57:10.234Z,24.61
2023-09-22T01:58:15.591Z,24.61
2023-09-22T01:59:20.968Z,24.57
2023-09-22T02:00:26.327Z,24.61
2023-09-22T02:01:31.971Z,24.6
2023-09-22T02:02:37.382Z,24.6
2023-09-22T02:03:43.273Z,24.61
2023-09-22T02:04:49.313Z,24.6
2023-09-22T02:05:55.037Z,24.55
2023-09-22T02:07:00.376Z,24.6
2023-09-22T02:08:05.777Z,24.6
2023-09-22T02:09:11.163Z,24.59
2023-09-22T02:10:16.487Z,24.6
2023-09-22T02:11:21.806Z,24.53
2023-09-22T02:12:27.180Z,24.55
2023-09-22T02:13:32.567Z,24.59
2023-09-22T02:14:37.917Z,24.59
2023-09-22T02:15:43.277Z,24.58
2023-09-22T02:16:48.935Z,24.54
2023-09-22T02:17:54.397Z,24.54
2023-09-22T02:18:59.830Z,24.54
2023-09-22T02:20:05.328Z,24.58
2023-09-22T02:21:10.652Z,24.53
2023-09-22T02:22:15.988Z,24.57
2023-09-22T02:23:21.341Z,24.53
2023-09-22T02:24:26.774Z,24.58
2023-09-22T02:25:32.247Z,24.57
2023-09-22T02:26:37.661Z,24.53
2023-09-22T02:27:42.997Z,24.57
2023-09-22T02:28:48.398Z,24.55
2023-09-22T02:29:53.726Z,24.57
2023-09-22T02:30:59.147Z,24.53
2023-09-22T02:32:04.838Z,24.57
2023-09-22T02:33:10.196Z,24.56
2023-09-22T02:34:15.535Z,24.52
2023-09-22T02:35:20.889Z,24.56
2023-09-22T02:36:26.285Z,24.56
2023-09-22T02:37:31.702Z,24.56
2023-09-22T02:38:36.990Z,24.51
2023-09-22T02:39:42.336Z,24.25
2023-09-22T02:40:47.805Z,24.55
2023-09-22T02:41:53.142Z,24.55
2023-09-22T02:42:58.532Z,24.55
2023-09-22T02:44:04.021Z,24.55
2023-09-22T02:45:09.338Z,24.54
2023-09-22T02:46:15.343Z,24.51
2023-09-22T02:47:21.498Z,24.54
2023-09-22T02:48:27.135Z,24.5
2023-09-22T02:49:32.577Z,24.51
2023-09-22T02:50:37.947Z,24.51
2023-09-22T02:51:43.292Z,24.53
2023-09-22T02:52:48.836Z,24.49
2023-09-22T02:53:54.295Z,24.54
2023-09-22T02:54:59.668Z,24.54
2023-09-22T02:56:05.223Z,24.54
2023-09-22T02:57:10.610Z,24.48
2023-09-22T02:58:15.984Z,24.53
2023-09-22T02:59:21.335Z,24.53
2023-09-22T03:00:26.777Z,24.53
2023-09-22T03:01:32.212Z,24.53
2023-09-22T03:02:37.722Z,24.48
2023-09-22T03:03:43.413Z,24.49
2023-09-22T03:04:48.998Z,24.52
2023-09-22T03:05:54.488Z,24.51
2023-09-22T03:06:59.826Z,24.51
2023-09-22T03:08:05.321Z,24.51
2023-09-22T03:09:10.651Z,24.47
2023-09-22T03:10:16.010Z,24.46
2023-09-22T03:11:21.332Z,24.5
2023-09-22T03:12:26.650Z,24.5
2023-09-22T03:13:32.098Z,24.45
2023-09-22T03:14:37.524Z,24.5
2023-09-22T03:15:42.889Z,24.49
2023-09-22T03:16:48.493Z,24.5
2023-09-22T03:17:53.978Z,24.49
2023-09-22T03:18:59.547Z,24.49
2023-09-22T03:20:05.133Z,24.48
2023-09-22T03:21:10.439Z,24.45
2023-09-22T03:22:15.743Z,24.49
2023-09-22T03:23:21.054Z,24.48
2023-09-22T03:24:26.398Z,24.44
2023-09-22T03:25:31.824Z,24.49
2023-09-22T03:26:37.123Z,24.45
2023-09-22T03:27:42.554Z,24.48
2023-09-22T03:28:48.197Z,24.45
2023-09-22T03:29:53.489Z,24.48
2023-09-22T03:30:58.877Z,24.43
2023-09-22T03:32:04.689Z,24.48
2023-09-22T03:33:10.124Z,24.48
2023-09-22T03:34:15.664Z,24.49
2023-09-22T03:35:20.976Z,24.44
2023-09-22T03:36:26.476Z,24.41
2023-09-22T03:37:32.063Z,24.48
2023-09-22T03:38:37.411Z,24.48
2023-09-22T03:39:42.719Z,24.47
2023-09-22T03:40:48.221Z,24.43
2023-09-22T03:41:53.557Z,24.43
2023-09-22T03:42:59.053Z,24.47
2023-09-22T03:44:04.495Z,24.47
2023-09-22T03:45:09.834Z,24.42
2023-09-22T03:46:15.202Z,24.42
2023-09-22T03:47:20.757Z,24.41
2023-09-22T03:48:26.141Z,24.45
2023-09-22T03:49:31.581Z,24.41
2023-09-22T03:50:36.938Z,24.41
2023-09-22T03:51:42.310Z,24.45
2023-09-22T03:52:47.844Z,24.45
2023-09-22T03:53:53.187Z,24.44
2023-09-22T03:54:58.718Z,24.4
2023-09-22T03:56:04.311Z,24.4
2023-09-22T03:57:09.719Z,24.39
2023-09-22T03:58:15.046Z,24.44
2023-09-22T03:59:20.377Z,24.44
2023-09-22T04:00:25.684Z,24.38
2023-09-22T04:01:31.417Z,24.43
2023-09-22T04:02:37.059Z,24.43
2023-09-22T04:03:42.542Z,24.42
2023-09-22T04:04:50.545Z,24.42
2023-09-22T04:05:55.853Z,24.38
2023-09-22T04:07:01.180Z,24.43
2023-09-22T04:08:06.610Z,24.39
2023-09-22T04:09:11.920Z,24.43
2023-09-22T04:10:17.239Z,24.42
2023-09-22T04:11:22.578Z,24.38
2023-09-22T04:12:27.885Z,24.41
2023-09-22T04:13:33.328Z,24.4
2023-09-22T04:14:40.139Z,24.4
2023-09-22T04:15:47.942Z,24.41
2023-09-22T04:16:53.491Z,24.37
2023-09-22T04:17:59.235Z,24.36
2023-09-22T04:19:04.808Z,24.39
2023-09-22T04:20:10.274Z,24.36
2023-09-22T04:21:17.639Z,24.4
2023-09-22T04:22:22.971Z,24.35
2023-09-22T04:23:28.293Z,24.39
2023-09-22T04:24:33.778Z,24.39
2023-09-22T04:25:39.221Z,24.39
2023-09-22T04:26:44.516Z,24.34
2023-09-22T04:27:49.859Z,24.35
2023-09-22T04:28:55.254Z,24.34
2023-09-22T04:30:00.720Z,24.34
2023-09-22T04:31:06.154Z,24.37
2023-09-22T04:32:11.753Z,24.37
2023-09-22T04:33:17.089Z,24.37
2023-09-22T04:34:22.445Z,24.34
2023-09-22T04:35:27.805Z,24.33
2023-09-22T04:36:33.225Z,24.32
2023-09-22T04:37:38.620Z,24.37
2023-09-22T04:38:44.098Z,24.36
2023-09-22T04:39:49.834Z,24.36
2023-09-22T04:40:55.285Z,24.36
2023-09-22T04:42:00.631Z,24.35
2023-09-22T04:43:06.013Z,24.13
2023-09-22T04:44:11.625Z,24.35
2023-09-22T04:45:16.955Z,24.34
2023-09-22T04:46:22.533Z,24.3
2023-09-22T04:47:28.037Z,24.34
2023-09-22T04:48:33.433Z,24.33
2023-09-22T04:49:38.811Z,24.34
2023-09-22T04:50:44.126Z,24.32
2023-09-22T04:51:49.612Z,24.34
2023-09-22T04:52:55.160Z,24.33
2023-09-22T04:54:02.562Z,24.34
2023-09-22T04:55:08.089Z,24.3
2023-09-22T04:56:13.412Z,24.34
2023-09-22T04:57:18.879Z,24.29
2023-09-22T04:58:24.184Z,24.3
2023-09-22T04:59:29.513Z,24.33
2023-09-22T05:00:35.005Z,24.33
2023-09-22T05:01:40.858Z,24.33
2023-09-22T05:02:47.223Z,24.33
2023-09-22T05:03:52.618Z,24.29
2023-09-22T05:04:58.261Z,24.33
2023-09-22T05:06:03.626Z,24.32
2023-09-22T05:07:08.928Z,24.32
2023-09-22T05:08:14.244Z,24.32
2023-09-22T05:09:19.596Z,24.3
2023-09-22T05:10:24.912Z,24.28
2023-09-22T05:11:30.241Z,24.33
2023-09-22T05:12:35.567Z,24.32
2023-09-22T05:13:41.096Z,24.32
2023-09-22T05:14:46.448Z,24.28
2023-09-22T05:15:51.790Z,24.31
2023-09-22T05:16:57.278Z,24.31
2023-09-22T05:18:02.753Z,24.31
2023-09-22T05:19:08.254Z,24.27
2023-09-22T05:20:13.870Z,24.32
2023-09-22T05:21:19.264Z,24.32
2023-09-22T05:22:24.655Z,24.31
2023-09-22T05:23:30.012Z,24.31
2023-09-22T05:24:35.405Z,24.3
2023-09-22T05:25:40.872Z,24.31
2023-09-22T05:26:46.219Z,24.3
2023-09-22T05:27:51.818Z,24.31
2023-09-22T05:29:00.888Z,24.32
2023-09-22T05:30:06.222Z,24.31
2023-09-22T05:31:14.567Z,24.31
2023-09-22T05:32:20.393Z,24.31
2023-09-22T05:33:25.827Z,24.27
2023-09-22T05:34:31.222Z,24.31
2023-09-22T05:35:36.538Z,24.26
2023-09-22T05:36:41.890Z,24.26
2023-09-22T05:37:47.353Z,24.27
2023-09-22T05:38:52.687Z,24.31
2023-09-22T05:39:57.977Z,24.26
2023-09-22T05:41:03.582Z,24.3
2023-09-22T05:42:08.942Z,24.3
2023-09-22T05:43:14.218Z,24.27
2023-09-22T05:44:19.633Z,24.3
2023-09-22T05:45:24.974Z,24.29
2023-09-22T05:46:30.414Z,24.3
2023-09-22T05:47:35.897Z,24.3
2023-09-22T05:48:42.040Z,24.26
2023-09-22T05:49:48.306Z,24.3
2023-09-22T05:50:53.613Z,24.26
2023-09-22T05:51:58.956Z,24.26
2023-09-22T05:53:04.397Z,24.26
2023-09-22T05:54:09.754Z,24.3
2023-09-22T05:55:15.073Z,24.3
2023-09-22T05:56:20.524Z,24.3
2023-09-22T05:57:25.836Z,24.3
2023-09-22T05:58:31.216Z,24.29
2023-09-22T05:59:36.527Z,24.29
2023-09-22T06:00:41.944Z,24.21
2023-09-22T06:01:47.407Z,24.25
2023-09-22T06:02:52.972Z,24.29
2023-09-22T06:03:58.438Z,24.29
2023-09-22T06:05:04.013Z,24.29
2023-09-22T06:06:09.348Z,24.29
2023-09-22T06:07:14.710Z,24.29
2023-09-22T06:08:20.005Z,24.29
2023-09-22T06:09:25.332Z,24.3
2023-09-22T06:10:30.714Z,24.26
2023-09-22T06:11:36.036Z,24.3
2023-09-22T06:12:41.379Z,24.3
2023-09-22T06:13:46.857Z,24.29
2023-09-22T06:14:52.172Z,24.3
2023-09-22T06:15:57.617Z,24.27
2023-09-22T06:17:03.164Z,24.26
2023-09-22T06:18:08.595Z,24.28
2023-09-22T06:19:14.041Z,24.29
2023-09-22T06:20:19.536Z,24.3
2023-09-22T06:21:24.875Z,24.3
2023-09-22T06:22:30.320Z,24.3
2023-09-22T06:23:35.640Z,24.27
2023-09-22T06:24:41.023Z,24.3
2023-09-22T06:25:46.449Z,24.3
2023-09-22T06:26:51.783Z,24.31
2023-09-22T06:27:57.093Z,24.3
2023-09-22T06:29:02.633Z,24.31
2023-09-22T06:30:07.992Z,24.2
2023-09-22T06:31:13.328Z,24.29
2023-09-22T06:32:18.735Z,24.31
2023-09-22T06:33:24.067Z,24.26
2023-09-22T06:34:29.386Z,24.3
2023-09-22T06:35:34.718Z,24.3
2023-09-22T06:36:40.255Z,24.3
2023-09-22T06:37:45.724Z,24.1
2023-09-22T06:38:51.041Z,24.31
2023-09-22T06:39:56.394Z,24.31
2023-09-22T06:41:03.401Z,24.27
2023-09-22T06:42:09.032Z,24.32
2023-09-22T06:43:22.932Z,24.32
2023-09-22T06:44:29.173Z,24.32
2023-09-22T06:45:34.550Z,24.32
2023-09-22T06:46:40.169Z,24.33
2023-09-22T06:47:45.939Z,24.29
2023-09-22T06:48:51.915Z,24.33
2023-09-22T06:49:57.388Z,24.33
2023-09-22T06:51:02.726Z,24.32
2023-09-22T06:52:08.097Z,24.33
2023-09-22T06:53:13.599Z,24.33
2023-09-22T06:54:18.976Z,24.33
2023-09-22T06:55:24.352Z,24.33
2023-09-22T06:56:39.397Z,24.34
2023-09-22T06:57:54.734Z,24.32
2023-09-22T06:59:00.188Z,24.35
2023-09-22T07:00:05.475Z,24.31
2023-09-22T07:01:10.895Z,24.34
2023-09-22T07:02:17.105Z,24.36
2023-09-22T07:03:22.572Z,24.34
2023-09-22T07:04:28.286Z,24.35
2023-09-22T07:05:33.761Z,24.37
2023-09-22T07:06:39.101Z,24.37
2023-09-22T07:07:44.628Z,24.36
2023-09-22T07:08:49.959Z,24.37
2023-09-22T07:09:55.396Z,24.33
2023-09-22T07:11:00.940Z,24.38
2023-09-22T07:12:06.612Z,24.38
2023-09-22T07:13:11.976Z,24.39
2023-09-22T07:14:17.360Z,24.39
2023-09-22T07:15:22.700Z,24.39
2023-09-22T07:16:28.062Z,24.37
2023-09-22T07:17:33.729Z,24.36
2023-09-22T07:18:39.320Z,24.4
2023-09-22T07:19:44.982Z,24.4
2023-09-22T07:20:50.280Z,24.41
2023-09-22T07:21:55.645Z,24.38
2023-09-22T07:23:01.175Z,24.42
2023-09-22T07:24:06.494Z,24.38
2023-09-22T07:25:11.818Z,24.43
2023-09-22T07:26:17.431Z,24.39
2023-09-22T07:27:22.779Z,24.39
2023-09-22T07:28:28.095Z,24.44
2023-09-22T07:29:33.458Z,24.43
2023-09-22T07:30:38.837Z,24.44
2023-09-22T07:31:44.261Z,24.41
2023-09-22T07:32:49.855Z,24.41
2023-09-22T07:33:55.337Z,24.46
2023-09-22T07:35:00.788Z,24.41
2023-09-22T07:36:06.127Z,24.41
2023-09-22T07:37:20.314Z,24.41
2023-09-22T07:38:26.055Z,24.46
2023-09-22T07:39:31.560Z,24.45
2023-09-22T07:40:36.982Z,24.46
2023-09-22T07:41:42.299Z,24.46
2023-09-22T07:42:47.617Z,24.46
2023-09-22T07:43:53.137Z,24.46
2023-09-22T07:44:58.721Z,24.42
2023-09-22T07:46:04.268Z,24.47
2023-09-22T07:47:10.532Z,24.47
2023-09-22T07:48:15.825Z,24.48
2023-09-22T07:49:21.167Z,24.48
2023-09-22T07:50:26.488Z,24.49
2023-09-22T07:51:31.851Z,24.46
2023-09-22T07:52:37.311Z,24.51
2023-09-22T07:53:42.624Z,24.51
2023-09-22T07:54:47.973Z,24.47
2023-09-22T07:55:53.410Z,24.53
2023-09-22T07:56:58.743Z,24.53
2023-09-22T07:58:04.211Z,24.54
2023-09-22T07:59:13.270Z,24.54
2023-09-22T08:00:19.734Z,24.55
2023-09-22T08:01:25.291Z,24.51
2023-09-22T08:02:30.860Z,24.56
2023-09-22T08:03:36.259Z,24.51
2023-09-22T08:04:42.273Z,24.57
2023-09-22T08:05:47.895Z,24.57
2023-09-22T08:06:53.335Z,24.58
2023-09-22T08:07:58.756Z,24.54
2023-09-22T08:09:04.108Z,24.54
2023-09-22T08:10:09.520Z,24.53
2023-09-22T08:11:15.058Z,24.58
2023-09-22T08:12:20.399Z,24.58
2023-09-22T08:13:25.804Z,24.58
2023-09-22T08:14:45.972Z,24.58
2023-09-22T08:16:02.350Z,24.55
2023-09-22T08:17:07.987Z,24.55
2023-09-22T08:18:13.320Z,24.55
2023-09-22T08:19:18.700Z,24.56
2023-09-22T08:20:24.168Z,24.55
2023-09-22T08:21:29.828Z,24.6
2023-09-22T08:22:35.375Z,24.57
2023-09-22T08:23:48.734Z,24.61
2023-09-22T08:24:57.927Z,24.57
2023-09-22T08:26:03.497Z,24.58
2023-09-22T08:27:08.832Z,24.59
2023-09-22T08:28:14.320Z,24.63
2023-09-22T08:29:20.097Z,24.6
2023-09-22T08:30:25.450Z,24.64
2023-09-22T08:31:30.970Z,24.64
2023-09-22T08:32:36.286Z,24.65
2023-09-22T08:33:41.884Z,24.66
2023-09-22T08:34:47.466Z,24.66
2023-09-22T08:36:02.032Z,24.62
2023-09-22T08:37:09.007Z,24.62
2023-09-22T08:38:14.469Z,24.61
2023-09-22T08:39:19.818Z,24.66
2023-09-22T08:40:25.248Z,24.65
2023-09-22T08:41:30.585Z,24.65
2023-09-22T08:42:36.393Z,24.66
2023-09-22T08:43:41.885Z,24.6
2023-09-22T08:44:47.314Z,24.66
2023-09-22T08:45:52.660Z,24.62
2023-09-22T08:46:58.405Z,24.66
2023-09-22T08:48:04.189Z,24.66
2023-09-22T08:49:09.882Z,24.66
2023-09-22T08:50:15.356Z,24.66
2023-09-22T08:51:21.038Z,24.62
2023-09-22T08:52:26.407Z,24.61
2023-09-22T08:53:31.704Z,24.66
2023-09-22T08:54:37.085Z,24.66
2023-09-22T08:55:46.812Z,24.65
2023-09-22T08:56:52.121Z,24.61
2023-09-22T08:57:57.487Z,24.65
2023-09-22T08:59:02.900Z,24.6
2023-09-22T09:00:08.245Z,24.65
2023-09-22T09:01:13.571Z,24.65
2023-09-22T09:03:26.701Z,24.66
2023-09-22T09:04:32.466Z,24.29
2023-09-22T09:05:38.166Z,24.67
2023-09-22T09:06:43.504Z,24.68
2023-09-22T09:07:49.264Z,24.68
2023-09-22T09:08:54.583Z,24.64
2023-09-22T09:09:59.934Z,24.69
2023-09-22T09:11:05.592Z,24.66
2023-09-22T09:12:10.903Z,24.69
2023-09-22T09:13:16.287Z,24.7
2023-09-22T09:14:21.606Z,24.71
2023-09-22T09:15:27.001Z,24.67
2023-09-22T09:16:32.401Z,24.72
2023-09-22T09:17:37.853Z,24.68
2023-09-22T09:18:43.275Z,24.26
2023-09-22T09:19:48.782Z,24.73
2023-09-22T09:20:54.111Z,24.74
2023-09-22T09:21:59.455Z,24.7
2023-09-22T09:23:05.029Z,24.74
2023-09-22T09:24:10.571Z,24.71
2023-09-22T09:25:16.008Z,24.76
2023-09-22T09:26:21.393Z,24.73
2023-09-22T09:27:26.703Z,24.77
2023-09-22T09:28:32.003Z,24.73
2023-09-22T09:29:39.732Z,24.78
2023-09-22T09:30:45.217Z,24.54
2023-09-22T09:31:51.054Z,24.74
2023-09-22T09:32:57.422Z,24.8
2023-09-22T09:34:02.825Z,24.82
2023-09-22T09:35:08.314Z,24.82
2023-09-22T09:36:13.619Z,24.83
2023-09-22T09:37:18.952Z,24.74
2023-09-22T09:38:24.477Z,24.84
2023-09-22T09:39:29.854Z,24.84
2023-09-22T09:40:35.214Z,24.85
2023-09-22T09:41:40.543Z,24.84
2023-09-22T09:42:45.977Z,24.86
2023-09-22T09:43:51.430Z,24.88
2023-09-22T09:44:56.740Z,24.87
2023-09-22T09:46:02.294Z,24.88
2023-09-22T09:47:07.931Z,24.85
2023-09-22T09:48:13.419Z,24.89
2023-09-22T09:49:18.961Z,24.89
2023-09-22T09:50:24.362Z,24.89
2023-09-22T09:51:29.797Z,24.87
2023-09-22T09:52:35.283Z,24.87
2023-09-22T09:53:40.650Z,24.87
2023-09-22T09:54:46.458Z,24.93
2023-09-22T09:55:52.131Z,24.94
2023-09-22T09:56:57.727Z,24.96
2023-09-22T09:58:03.109Z,24.99
2023-09-22T09:59:08.585Z,24.94
2023-09-22T10:00:13.948Z,24.99
2023-09-22T10:01:19.477Z,24.95
2023-09-22T10:02:25.220Z,24.95
2023-09-22T10:03:30.831Z,24.96
2023-09-22T10:04:36.601Z,25
2023-09-22T10:05:41.956Z,25.02
2023-09-22T10:06:52.209Z,25
2023-09-22T10:07:58.075Z,25.06
2023-09-22T10:09:03.492Z,25.06
2023-09-22T10:10:08.903Z,25.06
2023-09-22T10:11:14.404Z,25.04
2023-09-22T10:12:20.006Z,25.05
2023-09-22T10:13:25.379Z,25.04
2023-09-22T10:14:30.758Z,25.04
2023-09-22T10:15:36.105Z,25.08
2023-09-22T10:16:41.635Z,24.79
2023-09-22T10:17:47.045Z,25.1
2023-09-22T10:18:52.612Z,25.11
2023-09-22T10:19:58.033Z,25.1
2023-09-22T10:21:03.358Z,25.11
2023-09-22T10:22:08.740Z,25.13
2023-09-22T10:23:14.218Z,25.13
2023-09-22T10:24:19.580Z,25.12
2023-09-22T10:25:31.477Z,25.08
2023-09-22T10:26:39.820Z,25.14
2023-09-22T10:27:52.977Z,25.14
2023-09-22T10:29:12.630Z,25.11
2023-09-22T10:30:17.936Z,25.14
2023-09-22T10:31:23.341Z,25.14
2023-09-22T10:32:29.279Z,25.14
2023-09-22T10:33:35.058Z,25.15
2023-09-22T10:34:40.401Z,25.11
2023-09-22T10:35:46.498Z,25.12
2023-09-22T10:36:51.958Z,25.16
2023-09-22T10:37:57.527Z,25.17
2023-09-22T10:39:02.994Z,25.16
2023-09-22T10:40:08.381Z,25.16
2023-09-22T10:41:14.065Z,25.18
2023-09-22T10:42:19.534Z,25.21
2023-09-22T10:43:24.876Z,25.17
2023-09-22T10:44:30.223Z,25.22
2023-09-22T10:45:35.724Z,25.18
2023-09-22T10:46:41.338Z,25.22
2023-09-22T10:47:47.069Z,25.24
2023-09-22T10:48:52.725Z,25.25
2023-09-22T10:49:58.194Z,25.25
2023-09-22T10:52:08.865Z,25.26
2023-09-22T10:53:14.183Z,25.26
2023-09-22T10:54:19.991Z,25.27
2023-09-22T10:55:25.452Z,25.3
2023-09-22T10:56:30.906Z,25.3
2023-09-22T10:57:36.201Z,25.31
2023-09-22T10:58:41.531Z,25.33
2023-09-22T10:59:47.090Z,25.33
2023-09-22T11:00:52.411Z,25.34
2023-09-22T11:01:57.771Z,25.33
2023-09-22T11:03:03.309Z,25.34
2023-09-22T11:04:08.967Z,25.31
2023-09-22T11:05:14.553Z,25.34
2023-09-22T11:06:20.661Z,25.34
2023-09-22T11:07:26.265Z,25.33
2023-09-22T11:08:31.745Z,25.39
2023-09-22T11:09:37.404Z,25.39
2023-09-22T11:10:42.707Z,25.37
2023-09-22T11:11:48.117Z,25.42
2023-09-22T11:12:53.493Z,25.42
2023-09-22T11:13:58.923Z,25.43
2023-09-22T11:15:04.483Z,25.4
2023-09-22T11:16:09.841Z,25.39
2023-09-22T11:17:15.567Z,25.42
2023-09-22T11:18:21.468Z,25.36
2023-09-22T11:19:26.800Z,25.42
2023-09-22T11:20:32.274Z,25.4
2023-09-22T11:21:37.583Z,25.4
2023-09-22T11:22:43.071Z,25.46
2023-09-22T11:23:48.925Z,25.46
2023-09-22T11:24:54.262Z,25.48
2023-09-22T11:25:59.639Z,25.46
2023-09-22T11:27:05.246Z,25.5
2023-09-22T11:28:10.600Z,25.5
2023-09-22T11:29:16.070Z,25.52
2023-09-22T11:30:21.623Z,25.46
2023-09-22T11:31:27.076Z,25.52
2023-09-22T11:32:32.981Z,25.5
2023-09-22T11:33:38.857Z,25.5
2023-09-22T11:34:44.271Z,25.46
2023-09-22T11:36:04.551Z,25.48
2023-09-22T11:37:09.919Z,25.48
2023-09-22T11:38:15.371Z,25.53
2023-09-22T11:39:20.766Z,25.55
2023-09-22T11:40:26.112Z,25.55
2023-09-22T11:41:31.497Z,25.56
2023-09-22T11:42:37.772Z,25.55
2023-09-22T11:43:43.643Z,25.52
2023-09-22T11:44:50.064Z,25.52
2023-09-22T11:45:55.543Z,25.56
2023-09-22T11:47:01.332Z,25.57
2023-09-22T11:48:07.029Z,25.57
2023-09-22T11:49:12.420Z,25.57
2023-09-22T11:50:17.975Z,25.58
2023-09-22T11:51:23.306Z,25.57
2023-09-22T11:52:28.689Z,25.54
2023-09-22T11:53:34.249Z,25.6
2023-09-22T11:54:39.650Z,25.56
2023-09-22T11:55:45.016Z,25.59
2023-09-22T11:56:50.687Z,25.56
2023-09-22T11:57:56.012Z,25.6
2023-09-22T11:59:01.355Z,25.6
2023-09-22T12:00:06.756Z,25.6
2023-09-22T12:01:12.149Z,25.59
2023-09-22T12:02:17.977Z,25.62
2023-09-22T12:03:23.643Z,25.62
2023-09-22T12:04:29.289Z,25.58
2023-09-22T12:05:34.725Z,25.55
2023-09-22T12:06:40.024Z,25.63
2023-09-22T12:07:45.380Z,25.63
2023-09-22T12:08:50.869Z,25.64
2023-09-22T12:09:56.244Z,25.63
2023-09-22T12:11:01.538Z,25.65
2023-09-22T12:12:06.844Z,25.65
2023-09-22T12:13:12.252Z,25.62
2023-09-22T12:14:17.878Z,25.64
2023-09-22T12:15:23.681Z,25.65
2023-09-22T12:16:29.081Z,25.66
2023-09-22T12:17:34.899Z,25.66
2023-09-22T12:18:40.341Z,25.66
2023-09-22T12:19:45.724Z,25.61
2023-09-22T12:20:51.186Z,25.64
2023-09-22T12:21:56.492Z,25.59
2023-09-22T12:23:01.945Z,25.57
2023-09-22T12:24:07.317Z,25.6
2023-09-22T12:25:12.838Z,25.55
2023-09-22T12:26:18.309Z,25.59
2023-09-22T12:27:23.740Z,25.58
2023-09-22T12:28:29.124Z,25.59
2023-09-22T12:29:34.626Z,25.54
2023-09-22T12:30:39.986Z,25.58
2023-09-22T12:31:45.444Z,25.54
2023-09-22T12:32:51.205Z,25.58
2023-09-22T12:33:56.830Z,25.59
2023-09-22T12:35:02.186Z,25.59
2023-09-22T12:36:07.656Z,25.59
2023-09-22T12:37:13.068Z,25.61
2023-09-22T12:38:18.509Z,25.61
2023-09-22T12:39:23.866Z,25.61
2023-09-22T12:40:29.733Z,25.61
2023-09-22T12:41:35.196Z,25.57
2023-09-22T12:42:40.542Z,25.57
2023-09-22T12:43:46.064Z,25.61
2023-09-22T12:44:51.964Z,25.61
2023-09-22T12:45:57.311Z,25.6
2023-09-22T12:47:02.889Z,25.62
2023-09-22T12:48:09.219Z,25.58
2023-09-22T12:49:14.736Z,25.62
2023-09-22T12:50:20.188Z,25.61
2023-09-22T12:51:25.586Z,25.61
2023-09-22T12:52:31.008Z,25.61
2023-09-22T12:53:36.452Z,25.58
2023-09-22T12:54:41.773Z,25.58
2023-09-22T12:55:47.324Z,25.62
2023-09-22T12:56:52.885Z,25.57
2023-09-22T12:57:58.307Z,25.61
2023-09-22T12:59:03.641Z,25.58
2023-09-22T13:00:09.016Z,25.6
2023-09-22T13:01:14.439Z,25.61
2023-09-22T13:02:20.319Z,25.63
2023-09-22T13:03:26.201Z,25.63
2023-09-22T13:04:31.960Z,25.63
2023-09-22T13:05:37.396Z,25.62
2023-09-22T13:06:42.710Z,25.59
2023-09-22T13:07:48.765Z,25.58
2023-09-22T13:08:54.364Z,25.59
2023-09-22T13:09:59.757Z,25.63
2023-09-22T13:11:05.131Z,25.59
2023-09-22T13:12:10.712Z,25.63
2023-09-22T13:13:16.066Z,25.63
2023-09-22T13:14:21.539Z,25.64
2023-09-22T13:15:27.027Z,25.64
2023-09-22T13:16:32.727Z,25.6
2023-09-22T13:17:38.691Z,25.64
2023-09-22T13:18:44.911Z,25.63
2023-09-22T13:19:51.202Z,25.65
2023-09-22T13:20:56.735Z,25.64
2023-09-22T13:22:02.144Z,25.64
2023-09-22T13:23:07.626Z,25.65
2023-09-22T13:24:13.126Z,25.66
2023-09-22T13:25:18.424Z,25.63
2023-09-22T13:26:24.217Z,25.66
2023-09-22T13:27:29.571Z,25.64
2023-09-22T13:28:35.094Z,25.6
2023-09-22T13:29:40.701Z,25.7
2023-09-22T13:30:48.453Z,25.66
2023-09-22T13:31:54.188Z,25.71
2023-09-22T13:32:59.892Z,25.7
2023-09-22T13:34:05.501Z,25.67
2023-09-22T13:35:10.802Z,25.7
2023-09-22T13:36:16.226Z,25.71
2023-09-22T13:37:21.633Z,25.71
2023-09-22T13:38:27.059Z,25.71
2023-09-22T13:39:32.509Z,25.68
2023-09-22T13:40:37.913Z,25.73
2023-09-22T13:41:43.442Z,25.69
2023-09-22T13:42:48.752Z,25.68
2023-09-22T13:43:54.233Z,25.72
2023-09-22T13:44:59.767Z,25.72
2023-09-22T13:46:05.116Z,25.7
2023-09-22T13:47:10.726Z,25.74
2023-09-22T13:48:16.349Z,25.67
2023-09-22T13:49:21.813Z,25.72
2023-09-22T13:50:27.481Z,25.72
2023-09-22T13:51:32.876Z,25.72
2023-09-22T13:52:38.284Z,25.74
2023-09-22T13:53:43.944Z,25.72
2023-09-22T13:54:50.425Z,25.76
2023-09-22T13:55:55.916Z,25.73
2023-09-22T13:57:01.423Z,25.77
2023-09-22T13:58:06.830Z,25.78
2023-09-22T13:59:12.465Z,25.79
2023-09-22T14:00:17.845Z,25.77
2023-09-22T14:01:23.582Z,25.77
2023-09-22T14:02:29.484Z,25.77
2023-09-22T14:03:35.579Z,25.74
2023-09-22T14:04:41.300Z,25.73
2023-09-22T14:05:46.760Z,25.78
2023-09-22T14:06:52.253Z,25.77
2023-09-22T14:07:57.557Z,25.76
2023-09-22T14:09:03.176Z,25.73
2023-09-22T14:10:08.524Z,25.77
2023-09-22T14:11:14.442Z,25.77